Impacts TAF Board
For situational awareness. Not to be used for flight planning purposes.
IDs:

KOTH - North Bend/SW Oregon, OR, US

Issued at 1126 UTC 07 Jul 2020
Updated at 1344 UTC 07 Jul 2020
Potential Impact None Slight Moderate High
Time1256Z 07/14Z 07/15Z 07/16Z 07/17Z 07/18Z 07/19Z 07/20Z 07/21Z 07/22Z 07/23Z 08/00Z 08/01Z 08/02Z>>
Type OBS PRVL PRVL PRVL PRVL PRVL PRVL PRVL PRVL PRVL PRVL PRVL PRVL PRVL
VIS 10 >6 >6 >6 >6 >6 >6 >6 >6 >6 >6 >6 >6 >6
CIG 32 35 35 35 35 35 35 50 50 50 -- -- -- --
Cover OVC OVC OVC OVC OVC OVC OVC BKN BKN BKN SCT SCT SCT SCT
FltCat VFR VFR VFR VFR VFR VFR VFR VFR VFR VFR VFR VFR VFR VFR
WX -- -- -- -- -- -- -- -- -- -- -- -- -- --
WDir 140 VRB VRB VRB VRB VRB VRB 310 310 310 330 330 330 330
WSpd 5 3 3 3 3 3 3 10 10 10 13 13 13 13
WGst -- -- -- -- -- -- -- -- -- -- -- -- -- --
Raw TAF
KOTH 071126Z 0712/0812 VRB03KT P6SM OVC035
  FM072000 31010KT P6SM BKN050
  FM072300 33013KT P6SM SCT250
  FM080400 34006KT P6SM BKN020
  FM080800 VRB03KT P6SM OVC007


Raw METAR
KOTH 071256Z AUTO 14005KT 10SM OVC032 13/12 A3016 RMK AO2 RAB40E54 SLP213 P0000 T01330117
KOTH 071156Z AUTO 14006KT 10SM OVC036 14/12 A3015 RMK AO2 SLP210 70003 T01390117 10150 20139 55001
KOTH 071056Z AUTO 14005KT 10SM OVC038 14/12 A3015 RMK AO2 SLP209 T01390122

METAR Board
Radar Display
Forecast Discussion
For situational awareness. Not to be used for flight planning purposes.